Tiempo atmosférico en la estación meteorológica de Agaete, Las Palmas (5 m.)



Fecha
DESCASC
Temp. máxima en grados centígrados (hora)
DESCASC
Temp. mínima en grados centígrados (hora)
DESCASC
Temp. media en grados centígrados
DESCASC
Racha de viento máxima en m/sg (hora)
DESCASC
Velocidad máxima media en intervalos de 10 minutos(hora)
DESCASC
Precipitaciones diarias en mm
DESCASC
Precipitaciones de 00:00 a 06:00 en mm
DESCASC
Precipitaciones de 06:00 a 12:00 en mm
DESCASC
Precipitaciones de 12:00 a 18:00 en mm
DESCASC
Precipitaciones de 18:00 a 24:00 en mm
DESCASC
23-06-2019 24.7 (16:30) 20.9 (07:30) 22.8 7.78 (10:10) 5.56 (11:10) 0 0 0 0 0
22-06-2019 23.8 (11:40) 19.8 (05:00) 21.8 11.39 (14:10) 8.33 (12:50) 0 0 0 0 0
21-06-2019 24.6 (17:10) 20.5 (07:20) 22.6 11.39 (15:30) 7.22 (13:50) 0 0 0 0 0
20-06-2019 25.3 (12:20) 20.6 (00:00) 22.9 13.89 (14:10) 8.06 (14:10) 0 0 0 0 0
19-06-2019 -- (--) -- (--) -- -- (--) -- (--) -- -- -- -- 0
18-06-2019 24.4 (09:40) 19.8 (00:00) 22.1 7.78 (16:10) 5.83 (15:50) 0 0 0 0 0
17-06-2019 24.4 (18:50) 18.3 (00:00) 21.3 3.61 (02:00) 2.5 (00:50) 0 0 0 0 0
16-06-2019 23 (17:10) 17.9 (00:00) 20.4 11.39 (14:10) 8.33 (13:50) 0 0 0 0 0
15-06-2019 22.4 (14:50) 18.7 (00:00) 20.6 10.56 (13:10) 7.22 (11:20) 0 0 0 0 0
14-06-2019 23 (18:10) 18.1 (00:00) 20.6 9.17 (19:10) 6.11 (22:00) 0 0 0 0 0
13-06-2019 22.5 (14:20) 19 (00:00) 20.8 9.72 (18:20) 7.22 (16:20) 0 0 0 0 0
12-06-2019 23.7 (15:10) 18.2 (00:00) 21 11.11 (16:10) 7.78 (16:20) 1 0.8 0.2 0 0
11-06-2019 22.8 (15:00) 19 (00:00) 20.9 13.33 (13:30) 7.22 (13:30) 0 0 0 0 0
10-06-2019 23.2 (13:30) 19.5 (00:00) 21.4 14.17 (08:10) 7.78 (00:30) 0 0 0 0 0
09-06-2019 22.5 (16:30) 19.1 (00:00) 20.8 16.11 (16:10) 9.44 (15:30) 0 0 0 0 0
08-06-2019 23.6 (13:20) 19.8 (00:00) 21.7 12.5 (18:10) 8.06 (17:40) 0 0 0 0 0
07-06-2019 24.1 (16:30) 18.9 (00:00) 21.5 11.67 (14:30) 8.06 (15:00) 0 0 0 0 0
06-06-2019 22.5 (12:40) 19.1 (00:00) 20.8 11.11 (16:40) 7.22 (15:20) 0 0 0 0 0
05-06-2019 24 (13:50) 20.2 (00:00) 22.1 12.5 (16:10) 7.5 (12:00) 0 0 0 0 0
04-06-2019 26.3 (10:30) 20.2 (00:00) 23.3 14.72 (12:20) 11.39 (12:50) 0 0 0 0 0
03-06-2019 24.4 (16:10) 20 (00:00) 22.2 18.06 (14:10) 12.5 (14:20) 0 0 0 0 0
02-06-2019 25 (19:20) 19.2 (00:00) 22.1 13.06 (16:10) 10.28 (16:40) 0 0 0 0 0
01-06-2019 22.4 (16:40) 19.4 (00:00) 20.9 9.17 (17:10) 6.67 (17:10) 0 0 0 0 0
31-05-2019 22.1 (16:10) 19.1 (00:00) 20.6 11.39 (17:10) 8.33 (14:00) 0 0 0 0 0
30-05-2019 21.7 (18:50) 18.3 (00:00) 20 11.11 (13:10) 7.78 (13:00) 0 0 0 0 0
29-05-2019 22 (15:50) 18.8 (00:00) 20.4 11.39 (18:10) 8.33 (15:20) 0 0 0 0 0
28-05-2019 23.1 (14:40) 19.4 (00:00) 21.3 13.33 (16:10) 9.44 (13:40) 0 0 0 0 0
27-05-2019 22.7 (17:00) 19 (00:00) 20.9 15 (05:10) 10 (15:10) 0 0 0 0 0
26-05-2019 22.6 (15:10) 19.1 (00:00) 20.9 14.17 (15:40) 9.44 (19:10) 0 0 0 0 0

Gráficas

Temp. máximas Temp. mínimas Temp. medias Precipitaciones Rachas de viento máximas Velocidades máximas media en intervalos de 10 minutos

Datos horarios

Fecha y hora oficial Temperatura (ºC) Velocidad del viento (km/h) Dirección del viento Racha (km/h) Dirección de racha Precipitación (mm) Presión (hPa) Tendencia (hPa) Humedad (%)
2019-06-24 22:00:00 23.4 5 Sudoeste 14 Sudoeste 0 -- -- 76
2019-06-24 21:00:00 23.6 10 Sudoeste 17 Sudoeste 0 -- -- 77
2019-06-24 20:00:00 24.9 13 Sudoeste 20 Sudoeste 0 -- -- 73
2019-06-24 19:00:00 24.9 13 Sudoeste 22 Sudoeste 0 -- -- 75
2019-06-24 18:00:00 24.9 15 Sudoeste 24 Sudoeste 0 -- -- 75
2019-06-24 17:00:00 24.5 21 Sudoeste 32 Sudoeste 0 -- -- 76
2019-06-24 16:00:00 24.2 23 Sudoeste 30 Sudoeste 0 -- -- 76
2019-06-24 15:00:00 25.2 13 Oeste 17 Oeste 0 -- -- 71
2019-06-24 14:00:00 24 12 Oeste 22 Oeste 0 -- -- 77
2019-06-24 13:00:00 23.3 14 Oeste 19 Oeste 0 -- -- 77
2019-06-24 12:00:00 23.8 12 Oeste 15 Sudoeste 0 -- -- 76
2019-06-24 11:00:00 24.5 6 Oeste 9 Noroeste 0 -- -- 74
2019-06-24 10:00:00 23.9 7 Norte 8 Norte 0 -- -- 77
2019-06-24 09:00:00 24.2 3 Norte 5 Norte 0 -- -- 74
2019-06-24 08:00:00 22.6 0 Calma 5 Sur 0 -- -- 77
2019-06-24 07:00:00 21.2 4 Sur 6 Sur 0 -- -- 82
2019-06-24 06:00:00 21.4 5 Sur 10 Sur 0 -- -- 83
2019-06-24 05:00:00 21.8 8 Sur 18 Sudeste 0 -- -- 83
2019-06-24 04:00:00 22.2 10 Sudeste 16 Sudeste 0 -- -- 79
2019-06-24 03:00:00 23.6 8 Nordeste 15 Nordeste 0 -- -- 65
2019-06-24 02:00:00 23.7 8 Nordeste 15 Nordeste 0 -- -- 64
2019-06-24 01:00:00 23.5 5 Este 18 Nordeste 0 -- -- 64
2019-06-24 00:00:00 23.5 8 Nordeste 17 Nordeste 0 -- -- 63
2019-06-23 23:00:00 23.5 7 Nordeste 17 Nordeste 0 -- -- 65
2019-06-23 22:00:00 23.9 12 Nordeste 19 Nordeste 0 -- -- 62
2019-06-23 21:00:00 22.8 4 Este 14 Este 0 -- -- 75
2019-06-23 20:00:00 24.1 7 Sudoeste 23 Noroeste 0 -- -- 73
2019-06-23 19:00:00 24.5 14 Noroeste 18 Noroeste 0 -- -- 70
2019-06-23 18:00:00 24.4 10 Noroeste 13 Noroeste 0 -- -- 70
2019-06-23 17:00:00 24.5 8 Noroeste 11 Noroeste 0 -- -- 71
2019-06-23 16:00:00 24 8 Noroeste 14 Noroeste 0 -- -- 71
2019-06-23 15:00:00 23.9 12 Noroeste 19 Noroeste 0 -- -- 71
2019-06-23 14:00:00 23.2 15 Noroeste 21 Noroeste 0 -- -- 75
2019-06-23 13:00:00 23.8 17 Norte 22 Noroeste 0 -- -- 74
2019-06-23 12:00:00 23.2 14 Norte 27 Noroeste 0 -- -- 77
2019-06-23 11:00:00 22.6 18 Norte 28 Norte 0 -- -- 77
2019-06-23 10:00:00 22.5 19 Norte 22 Norte 0 -- -- 74
2019-06-23 09:00:00 22.8 9 Norte 15 Nordeste 0 -- -- 69
2019-06-23 08:00:00 21.5 8 Este 16 Este 0 -- -- 62
2019-06-23 07:00:00 21 9 Este 17 Este 0 -- -- 75
2019-06-23 06:00:00 21.2 7 Nordeste 13 Nordeste 0 -- -- 73
2019-06-23 05:00:00 21 8 Nordeste 14 Nordeste 0 -- -- 74
2019-06-23 04:00:00 21.5 9 Nordeste 17 Nordeste 0 -- -- 74
2019-06-23 03:00:00 22 10 Nordeste 18 Nordeste 0 -- -- 71
2019-06-23 02:00:00 21.7 7 Nordeste 22 Este 0 -- -- 71
2019-06-23 01:00:00 21.8 14 Este 24 Este 0 -- -- 70
2019-06-23 00:00:00 21.9 11 Nordeste 26 Nordeste 0 -- -- 71
2019-06-22 23:00:00 22 12 Este 22 Nordeste 0 -- -- 67
2019-06-22 22:00:00 21.9 9 Nordeste 22 Nordeste 0 -- -- 68
2019-06-22 21:00:00 22.1 12 Nordeste 28 Nordeste 0 -- -- 67
2019-06-22 20:00:00 22.7 20 Norte 30 Norte 0 -- -- 66
2019-06-22 19:00:00 23.2 21 Norte 34 Norte 0 -- -- 63
2019-06-22 18:00:00 23.6 19 Norte 33 Norte 0 -- -- 61
2019-06-22 17:00:00 23.4 22 Norte 40 Norte 0 -- -- 60
2019-06-22 16:00:00 23 25 Norte 35 Norte 0 -- -- 62
2019-06-22 15:00:00 23.2 28 Norte 41 Norte 0 -- -- 58
2019-06-22 14:00:00 22.9 26 Norte 39 Norte 0 -- -- 61
2019-06-22 13:00:00 22.6 28 Norte 39 Norte 0 -- -- 64
2019-06-22 12:00:00 22.8 21 Norte 30 Norte 0 -- -- 64
2019-06-22 11:00:00 22.1 16 Norte 27 Nordeste 0 -- -- 66
2019-06-22 10:00:00 21.4 16 Norte 23 Nordeste 0 -- -- 70
2019-06-22 09:00:00 21 10 Nordeste 19 Nordeste 0 -- -- 69
2019-06-22 08:00:00 20 12 Nordeste 18 Nordeste 0 -- -- 72
2019-06-22 07:00:00 20 9 Nordeste 20 Nordeste 0 -- -- 72
2019-06-22 06:00:00 20 11 Nordeste 17 Nordeste 0 -- -- 71
2019-06-22 05:00:00 19.8 11 Nordeste 19 Este 0 -- -- 71
2019-06-22 04:00:00 20.1 10 Nordeste 32 Nordeste 0 -- -- 70
2019-06-22 03:00:00 20.6 14 Nordeste 27 Nordeste 0 -- -- 70
2019-06-22 02:00:00 20.6 14 Nordeste 24 Nordeste 0 -- -- 71
2019-06-22 01:00:00 20.8 10 Nordeste 23 Nordeste 0 -- -- 70
2019-06-22 00:00:00 20.8 8 Nordeste 24 Nordeste 0 -- -- 69
2019-06-21 23:00:00 21.1 12 Nordeste 23 Nordeste 0 -- -- 69
2019-06-21 22:00:00 21.5 14 Nordeste 25 Este 0 -- -- 67
2019-06-21 21:00:00 21.9 14 Nordeste 30 Este 0 -- -- 63
2019-06-21 20:00:00 22.8 16 Nordeste 28 Nordeste 0 -- -- 62
2019-06-21 19:00:00 23.8 15 Norte 30 Norte 0 -- -- 57
2019-06-21 18:00:00 23.5 22 Norte 35 Norte 0 -- -- 59
2019-06-21 17:00:00 24.3 19 Norte 38 Norte 0 -- -- 55
2019-06-21 16:00:00 24.1 23 Norte 41 Norte 0 -- -- 57
2019-06-21 15:00:00 23.5 23 Norte 37 Norte 0 -- -- 58
2019-06-21 14:00:00 22.9 24 Norte 39 Norte 0 -- -- 61
2019-06-21 13:00:00 22.5 21 Norte 33 Norte 0 -- -- 66
2019-06-21 12:00:00 22.6 19 Norte 35 Norte 0 -- -- 63
2019-06-21 11:00:00 22.4 19 Nordeste 32 Norte 0 -- -- 59
2019-06-21 10:00:00 21.5 17 Nordeste 33 Nordeste 0 -- -- 68
2019-06-21 09:00:00 20.8 15 Nordeste 31 Nordeste 0 -- -- 74
2019-06-21 08:00:00 20.7 13 Nordeste 23 Nordeste 0 -- -- 73
2019-06-21 07:00:00 20.6 10 Nordeste 26 Este 0 -- -- 73
2019-06-21 06:00:00 20.8 13 Nordeste 21 Nordeste 0 -- -- 74
2019-06-21 05:00:00 20.7 13 Nordeste 23 Nordeste 0 -- -- 72
2019-06-21 04:00:00 20.8 13 Nordeste 24 Nordeste 0 -- -- 70
2019-06-21 03:00:00 20.8 14 Nordeste 28 Nordeste 0 -- -- 71
2019-06-21 02:00:00 21.1 14 Nordeste 27 Nordeste 0 -- -- 70
2019-06-21 01:00:00 21.2 15 Nordeste 27 Nordeste 0 -- -- 70
2019-06-21 00:00:00 21.5 13 Nordeste 27 Nordeste 0 -- -- 70
2019-06-20 23:00:00 21.5 14 Nordeste 29 Nordeste 0 -- -- 70
2019-06-20 22:00:00 21.7 17 Nordeste 31 Nordeste 0 -- -- 70
2019-06-20 21:00:00 22.3 18 Nordeste 31 Nordeste 0 -- -- 66
2019-06-20 20:00:00 23 20 Norte 32 Norte 0 -- -- 66
2019-06-20 19:00:00 23.2 20 Norte 34 Norte 0 -- -- 65
2019-06-20 18:00:00 23.5 19 Norte 31 Norte 0 -- -- 66
2019-06-20 17:00:00 24.5 21 Norte 34 Norte 0 -- -- 58
2019-06-20 16:00:00 23.8 25 Norte 45 Norte 0 -- -- 60
2019-06-20 15:00:00 24 28 Norte 50 Norte 0 -- -- 58
2019-06-20 14:00:00 23.8 28 Norte 35 Norte 0 -- -- 63
2019-06-20 13:00:00 24.6 21 Norte 32 Norte 0 -- -- 50
2019-06-20 12:00:00 25 14 Nordeste 31 Este 0 -- -- 49
2019-06-20 11:00:00 23.8 14 Nordeste 26 Nordeste 0 -- -- 61
2019-06-20 10:00:00 23.2 13 Nordeste 24 Nordeste 0 -- -- 63
2019-06-20 09:00:00 22 13 Nordeste 24 Nordeste 0 -- -- 67
2019-06-20 08:00:00 21.8 10 Nordeste 22 Nordeste 0 -- -- 69
2019-06-20 07:00:00 21.3 9 Nordeste 20 Sudeste 0 -- -- 66
2019-06-20 06:00:00 20.9 9 Este 18 Este 0 -- -- 65
2019-06-20 05:00:00 20.7 8 Este 16 Este 0 -- -- 68
2019-06-20 04:00:00 20.6 7 Nordeste 14 Este 0 -- -- 72
2019-06-20 03:00:00 20.9 9 Nordeste 17 Nordeste 0 -- -- 75
2019-06-20 02:00:00 21.3 9 Nordeste 15 Norte 0 -- -- 73
2019-06-20 01:00:00 21.5 10 Norte 16 Nordeste 0 -- -- 74
2019-06-20 00:00:00 22.1 10 Norte 17 Norte 0 -- -- 73
2019-06-19 23:00:00 22.2 8 Nordeste 17 Nordeste 0 -- -- 69
2019-06-19 22:00:00 22.5 8 Nordeste 17 Nordeste 0 -- -- 66
2019-06-19 21:00:00 23 12 Norte 26 Norte 0 -- -- 60
2019-06-19 20:00:00 23.9 18 Norte 39 Norte 0 -- -- 58
2019-06-19 19:00:00 23.7 23 Norte 33 Norte 0 -- -- 65
2019-06-19 18:00:00 23.7 26 Norte 32 Norte 0 -- -- 64
2019-06-19 17:00:00 24.2 27 Norte 36 Norte 0 -- -- 59
2019-06-19 16:00:00 24.8 22 Norte 31 Norte 0 -- -- 51
2019-06-19 15:00:00 24.1 21 Norte 26 Norte 0 -- -- 68
2019-06-19 14:00:00 23.9 20 Norte -- -- -- -- -- 67
2019-06-19 13:00:00 -- -- -- -- -- -- -- -- --
2019-06-19 12:00:00 -- -- -- -- -- -- -- -- --
2019-06-19 11:00:00 -- -- -- -- -- -- -- -- --
2019-06-19 10:00:00 -- -- -- -- -- -- -- -- --
2019-06-19 09:00:00 -- -- -- -- -- -- -- -- --
2019-06-19 08:00:00 -- -- -- -- -- -- -- -- --
2019-06-19 07:00:00 -- -- -- -- -- -- -- -- --
2019-06-19 06:00:00 -- -- -- -- -- -- -- -- --
2019-06-19 05:00:00 -- -- -- -- -- -- -- -- --
2019-06-19 04:00:00 -- -- -- -- -- -- -- -- --
2019-06-19 03:00:00 22.1 8 Nordeste 15 Norte 0 -- -- 72
2019-06-19 02:00:00 22.6 10 Norte 14 Norte 0 -- -- 69
2019-06-19 01:00:00 22.5 9 Nordeste 14 Nordeste 0 -- -- 68
2019-06-19 00:00:00 22.7 6 Norte 10 Norte 0 -- -- 75
2019-06-18 23:00:00 22.1 8 Norte 11 Norte 0 -- -- 82
2019-06-18 22:00:00 22.2 10 Norte 13 Norte 0 -- -- 81
2019-06-18 21:00:00 22.3 3 Noroeste 6 Sudoeste 0 -- -- 77
2019-06-18 20:00:00 22.5 6 Sudoeste 9 Sudoeste 0 -- -- 78
2019-06-18 19:00:00 22.8 6 Sudoeste 10 Noroeste 0 -- -- 78
2019-06-18 18:00:00 23.1 5 Noroeste 13 Noroeste 0 -- -- 77
2019-06-18 17:00:00 23.8 6 Norte 28 Noroeste 0 -- -- 74
2019-06-18 16:00:00 23.4 19 Noroeste 23 Noroeste 0 -- -- 75
2019-06-18 15:00:00 23.8 18 Noroeste 21 Noroeste 0 -- -- 72
2019-06-18 14:00:00 23.6 16 Noroeste 19 Noroeste 0 -- -- 73
2019-06-18 13:00:00 23.8 13 Norte 18 Norte 0 -- -- 71
2019-06-18 12:00:00 23.5 12 Noroeste 17 Noroeste 0 -- -- 73
2019-06-18 11:00:00 24.2 12 Norte 17 Norte 0 -- -- 68
2019-06-18 10:00:00 24.3 6 Norte 13 Nordeste 0 -- -- 65
2019-06-18 09:00:00 23.5 8 Nordeste 14 Este 0 -- -- 65
2019-06-18 08:00:00 22.1 5 Nordeste 13 Este 0 -- -- 66
2019-06-18 07:00:00 19.8 3 Este 6 Este 0 -- -- 67
2019-06-18 06:00:00 20 0 Calma 8 Este 0 -- -- 72
2019-06-18 05:00:00 20 5 Este 8 Nordeste 0 -- -- 72
2019-06-18 04:00:00 20.6 4 Este 11 Este 0 -- -- 72
2019-06-18 03:00:00 20.5 7 Este 10 Este 0 -- -- 74
2019-06-18 02:00:00 20.7 6 Este 9 Este 0 -- -- 74
2019-06-18 01:00:00 21.4 3 Sudeste 6 Sur 0 -- -- 77
2019-06-18 00:00:00 21.7 5 Sur 7 Sur 0 -- -- 75
2019-06-17 23:00:00 21.5 5 Sur 6 Sur 0 -- -- 71
2019-06-17 22:00:00 21.6 4 Sur 6 Sur 0 -- -- 70
2019-06-17 21:00:00 22.1 5 Sudoeste 7 Oeste 0 -- -- 68
2019-06-17 20:00:00 23.7 5 Oeste 8 Sudoeste 0 -- -- 64
2019-06-17 19:00:00 24.1 5 Oeste 9 Oeste 0 -- -- 61
2019-06-17 18:00:00 23.5 6 Oeste 9 Oeste 0 -- -- 63
2019-06-17 17:00:00 23.6 6 Oeste 10 Oeste 0 -- -- 62
2019-06-17 16:00:00 23.6 6 Sudoeste 9 Sudoeste 0 -- -- 61
2019-06-17 15:00:00 23.3 6 Sudoeste 9 Oeste 0 -- -- 62
2019-06-17 14:00:00 22.8 6 Oeste 9 Oeste 0 -- -- 65
2019-06-17 13:00:00 22 5 Noroeste 10 Noroeste 0 -- -- 67
2019-06-17 12:00:00 22.1 6 Noroeste 8 Noroeste 0 -- -- 65
2019-06-17 11:00:00 21.8 6 Noroeste 9 Oeste 0 -- -- 63
2019-06-17 10:00:00 22.4 3 Oeste 5 Noroeste 0 -- -- 58
2019-06-17 09:00:00 23.3 2 Sudeste 9 Este 0 -- -- 55
2019-06-17 08:00:00 19.3 8 Este 12 Este 0 -- -- 57
2019-06-17 07:00:00 18.3 5 Este 7 Este 0 -- -- 63
2019-06-17 06:00:00 18.5 0 Calma 7 Sur 0 -- -- 65
2019-06-17 05:00:00 18.8 3 Sudeste 10 Este 0 -- -- 67
2019-06-17 04:00:00 19.5 5 Este 9 Este 0 -- -- 59
2019-06-17 03:00:00 19.5 4 Este 13 Este 0 -- -- 58
2019-06-17 02:00:00 19.8 9 Este 13 Este 0 -- -- 60
2019-06-17 01:00:00 20.2 8 Este 13 Este 0 -- -- 62
2019-06-17 00:00:00 20.4 9 Este 14 Sur 0 -- -- 60
2019-06-16 23:00:00 20.4 6 Sudeste 18 Este 0 -- -- 63
2019-06-16 22:00:00 20.7 12 Nordeste 21 Nordeste 0 -- -- 63
2019-06-16 21:00:00 21.6 9 Nordeste 16 Nordeste 0 -- -- 61
2019-06-16 20:00:00 22.6 12 Norte 18 Noroeste 0 -- -- 61
2019-06-16 19:00:00 22.5 17 Norte 26 Norte 0 -- -- 60
2019-06-16 18:00:00 22.4 17 Norte 28 Norte 0 -- -- 58
2019-06-16 17:00:00 22.4 23 Norte 34 Norte 0 -- -- 64
2019-06-16 16:00:00 22.5 28 Norte 37 Norte 0 -- -- 63
2019-06-16 15:00:00 22.4 27 Norte 41 Norte 0 -- -- 62
2019-06-16 14:00:00 22 30 Norte 37 Norte 0 -- -- 64
2019-06-16 13:00:00 22.3 22 Norte 30 Noroeste 0 -- -- 62
2019-06-16 12:00:00 21.5 25 Norte 31 Norte 0 -- -- 65
2019-06-16 11:00:00 21.4 22 Norte 27 Norte 0 -- -- 64
2019-06-16 10:00:00 21.7 6 Sudeste 15 Sur 0 -- -- 59
2019-06-16 09:00:00 20.9 6 Sudeste 12 Este 0 -- -- 57
2019-06-16 08:00:00 19.2 5 Este 15 Este 0 -- -- 58
2019-06-16 07:00:00 18.1 8 Este 18 Este 0 -- -- 59
2019-06-16 06:00:00 18 10 Este 20 Sudeste 0 -- -- 56
2019-06-16 05:00:00 18.3 10 Este 18 Este 0 -- -- 63
2019-06-16 04:00:00 18.1 12 Este 17 Este 0 -- -- 61
2019-06-16 03:00:00 18.8 12 Este 15 Este 0 -- -- 62
2019-06-16 02:00:00 19.2 10 Sudeste 19 Nordeste 0 -- -- 61
2019-06-16 01:00:00 19.2 13 Nordeste 33 Nordeste 0 -- -- 67
2019-06-16 00:00:00 19.5 19 Nordeste 29 Nordeste 0 -- -- 66
2019-06-15 23:00:00 19.7 14 Nordeste 34 Nordeste 0 -- -- 65
2019-06-15 22:00:00 20.2 15 Nordeste 28 Nordeste 0 -- -- 63
2019-06-15 21:00:00 20.6 14 Nordeste 27 Nordeste 0 -- -- 62
2019-06-15 20:00:00 21 15 Nordeste 27 Nordeste 0 -- -- 61
2019-06-15 19:00:00 20.8 18 Nordeste 28 Nordeste 0 -- -- 60
2019-06-15 18:00:00 21.1 15 Nordeste 28 Nordeste 0 -- -- 60
2019-06-15 17:00:00 21.3 14 Nordeste 35 Nordeste 0 -- -- 59
2019-06-15 16:00:00 21.3 18 Nordeste 32 Nordeste 0 -- -- 59
2019-06-15 15:00:00 22.1 15 Nordeste 32 Norte 0 -- -- 59
2019-06-15 14:00:00 21.9 24 Norte 38 Norte 0 -- -- 59
2019-06-15 13:00:00 21 26 Norte 33 Norte 0 -- -- 63
2019-06-15 12:00:00 21.4 24 Norte 35 Norte 0 -- -- 60
2019-06-15 11:00:00 21.5 23 Norte 32 Norte 0 -- -- 56
2019-06-15 10:00:00 21.8 12 Nordeste 27 Nordeste 0 -- -- 50
2019-06-15 09:00:00 20.5 15 Nordeste 27 Nordeste 0 -- -- 54
2019-06-15 08:00:00 19.2 16 Nordeste 28 Nordeste 0 -- -- 64
2019-06-15 07:00:00 19.2 20 Nordeste 30 Nordeste 0 -- -- 65
2019-06-15 06:00:00 19.4 15 Nordeste 23 Nordeste 0 -- -- 64
2019-06-15 05:00:00 19.4 10 Este 26 Este 0 -- -- 57
2019-06-15 04:00:00 19.2 12 Nordeste 21 Nordeste 0 -- -- 56
2019-06-15 03:00:00 18.7 9 Nordeste 19 Este 0 -- -- 65
2019-06-15 02:00:00 19.3 11 Este 23 Nordeste 0 -- -- 59
2019-06-15 01:00:00 19.6 11 Este 30 Nordeste 0 -- -- 56
2019-06-15 00:00:00 20.1 14 Nordeste 31 Este 0 -- -- 51
2019-06-14 23:00:00 20.2 13 Este 30 Nordeste 0 -- -- 52
2019-06-14 22:00:00 20 22 Nordeste 32 Nordeste 0 -- -- 62
2019-06-14 21:00:00 20.5 17 Nordeste 32 Nordeste 0 -- -- 60
2019-06-14 20:00:00 21.7 17 Nordeste 33 Nordeste 0 -- -- 57
2019-06-14 19:00:00 22.6 18 Nordeste 32 Nordeste 0 -- -- 48
2019-06-14 18:00:00 22.9 19 Nordeste 32 Nordeste 0 -- -- 44
2019-06-14 17:00:00 22.4 18 Nordeste 31 Nordeste 0 -- -- 50
2019-06-14 16:00:00 21.7 14 Nordeste 25 Este 0 -- -- 51
2019-06-14 15:00:00 21.8 14 Nordeste 28 Norte 0 -- -- 58
2019-06-14 14:00:00 21.1 17 Norte 27 Norte 0 -- -- 61
2019-06-14 13:00:00 20.9 14 Norte 27 Norte 0 -- -- 60
2019-06-14 12:00:00 20.6 18 Norte 28 Norte 0 -- -- 64
2019-06-14 11:00:00 21 17 Norte 28 Norte 0 -- -- 61
2019-06-14 10:00:00 22.1 10 Nordeste 24 Este 0 -- -- 50
2019-06-14 09:00:00 20.8 15 Nordeste 25 Nordeste 0 -- -- 57
2019-06-14 08:00:00 19 9 Nordeste 17 Este 0 -- -- 61
2019-06-14 07:00:00 18.2 9 Nordeste 18 Nordeste 0 -- -- 68
2019-06-14 06:00:00 18.4 12 Nordeste 21 Nordeste 0 -- -- 68
2019-06-14 05:00:00 18.5 14 Nordeste 21 Nordeste 0 -- -- 61
2019-06-14 04:00:00 18.6 9 Nordeste 19 Nordeste 0 -- -- 58
2019-06-14 03:00:00 19 6 Nordeste 18 Nordeste 0 -- -- 57
2019-06-14 02:00:00 19.3 8 Nordeste 20 Nordeste 0 -- -- 61
2019-06-14 01:00:00 19.4 9 Nordeste 16 Nordeste 0 -- -- 64
2019-06-14 00:00:00 19.6 12 Nordeste 21 Nordeste 0 -- -- 66
2019-06-13 23:00:00 19.8 13 Nordeste 23 Nordeste 0 -- -- 63
2019-06-13 22:00:00 19.9 12 Nordeste 24 Nordeste 0 -- -- 65
2019-06-13 21:00:00 20.4 14 Nordeste 26 Norte 0 -- -- 62
2019-06-13 20:00:00 21.4 18 Norte 32 Norte 0 -- -- 58
2019-06-13 19:00:00 21.8 20 Norte 35 Norte 0 -- -- 54
2019-06-13 18:00:00 21.9 19 Norte 34 Norte 0 -- -- 58
2019-06-13 17:00:00 22.2 22 Norte 33 Norte 0 -- -- 56
2019-06-13 16:00:00 21.9 25 Norte 31 Norte 0 -- -- 60
2019-06-13 15:00:00 22.1 24 Norte 28 Norte 0 -- -- 58
2019-06-13 14:00:00 22.4 20 Norte 29 Norte 0 -- -- 60
2019-06-13 13:00:00 21.9 22 Norte 29 Norte 0 -- -- 60
2019-06-13 12:00:00 21.9 14 Nordeste 27 Norte 0 -- -- 48
2019-06-13 11:00:00 21.1 16 Norte 25 Norte 0 -- -- 59
2019-06-13 10:00:00 20.2 13 Nordeste 21 Este 0 -- -- 61
2019-06-13 09:00:00 19.8 10 Nordeste 17 Nordeste 0 -- -- 62
2019-06-13 08:00:00 19.5 9 Nordeste 17 Nordeste 0 -- -- 63
2019-06-13 07:00:00 19.4 10 Nordeste 19 Nordeste 0 -- -- 63
2019-06-13 06:00:00 19.3 9 Nordeste 16 Nordeste 0 -- -- 67
2019-06-13 05:00:00 19.1 6 Este 14 Este 0 -- -- 68
2019-06-13 04:00:00 19.1 9 Este 18 Norte 0 -- -- 68
2019-06-13 03:00:00 19.6 7 Nordeste 17 Nordeste 0 -- -- 61
2019-06-13 02:00:00 19.6 9 Este 21 Nordeste 0 -- -- 60
2019-06-13 01:00:00 19.5 9 Nordeste 21 Este 0 -- -- 65
2019-06-13 00:00:00 19.4 10 Nordeste 19 Este 0 -- -- 65
2019-06-12 23:00:00 19.8 10 Nordeste 23 Nordeste 0 -- -- 68
2019-06-12 22:00:00 20.1 10 Nordeste 24 Nordeste 0 -- -- 65
2019-06-12 21:00:00 20.2 15 Norte 26 Nordeste 0 -- -- 65
2019-06-12 20:00:00 20.5 18 Nordeste 32 Nordeste 0 -- -- 68
2019-06-12 19:00:00 21.5 13 Nordeste 27 Norte 0 -- -- 63
2019-06-12 18:00:00 21.6 16 Norte 33 Norte 0 -- -- 66
2019-06-12 17:00:00 21.6 23 Norte 40 Norte 0 -- -- 67
2019-06-12 16:00:00 22.4 23 Norte 32 Norte 0 -- -- 64
2019-06-12 15:00:00 23.6 15 Norte 33 Norte 0 -- -- 49
2019-06-12 14:00:00 23.1 17 Nordeste 30 Este 0 -- -- 55
2019-06-12 13:00:00 22.2 15 Nordeste 31 Nordeste 0 -- -- 59
2019-06-12 12:00:00 20.7 19 Nordeste 35 Norte 0 -- -- 66
2019-06-12 11:00:00 20.7 15 Este 26 Nordeste 0 -- -- 71
2019-06-12 10:00:00 18.6 16 Este 33 Nordeste 0.2 -- -- 85
2019-06-12 09:00:00 19.2 15 Nordeste 31 Nordeste 0 -- -- 81
2019-06-12 08:00:00 19.8 14 Nordeste 26 Nordeste 0 -- -- 80
2019-06-12 07:00:00 19.1 13 Nordeste 30 Este 0 -- -- 80
2019-06-12 06:00:00 19.4 15 Este 29 Este 0.2 -- -- 77
2019-06-12 05:00:00 19.3 12 Nordeste 29 Este 0 -- -- 80
2019-06-12 04:00:00 18.2 13 Nordeste 31 Nordeste 0.4 -- -- 85
2019-06-12 03:00:00 19.4 13 Nordeste 27 Nordeste 0.2 -- -- 80
2019-06-12 02:00:00 19.1 10 Nordeste 27 Este 0 -- -- 81
2019-06-12 01:00:00 19.5 17 Nordeste 29 Este 0 -- -- 80
2019-06-12 00:00:00 19.9 15 Nordeste 28 Norte 0 -- -- 73
2019-06-11 23:00:00 20 15 Nordeste 31 Nordeste 0 -- -- 78
2019-06-11 22:00:00 20.7 14 Nordeste 32 Norte 0 -- -- 70
2019-06-11 21:00:00 20.9 15 Nordeste 35 Nordeste 0 -- -- 66
2019-06-11 20:00:00 21 19 Nordeste 41 Este 0 -- -- 67
2019-06-11 19:00:00 21.9 19 Nordeste 38 Nordeste 0 -- -- 64
2019-06-11 18:00:00 22.3 20 Nordeste 38 Este 0 -- -- 64
2019-06-11 17:00:00 21.6 21 Nordeste 36 Nordeste 0 -- -- 68
2019-06-11 16:00:00 21.7 21 Nordeste 37 Nordeste 0 -- -- 64
2019-06-11 15:00:00 22.8 19 Nordeste 38 Nordeste 0 -- -- 60
2019-06-11 14:00:00 21.7 20 Este 48 Norte 0 -- -- 66
2019-06-11 13:00:00 20.8 18 Nordeste 33 Nordeste 0 -- -- 72
2019-06-11 12:00:00 21.9 16 Nordeste 34 Este 0 -- -- 62
2019-06-11 11:00:00 21 19 Nordeste 36 Norte 0 -- -- 65
2019-06-11 10:00:00 20.6 17 Nordeste 37 Nordeste 0 -- -- 63
2019-06-11 09:00:00 19.9 18 Nordeste 35 Nordeste 0 -- -- 63
2019-06-11 08:00:00 19.1 16 Nordeste 30 Nordeste 0 -- -- 73
2019-06-11 07:00:00 19.5 18 Nordeste 33 Norte 0 -- -- 66
2019-06-11 06:00:00 19.3 16 Nordeste 32 Nordeste 0 -- -- 69
2019-06-11 05:00:00 19.5 17 Nordeste 39 Nordeste 0 -- -- 67
2019-06-11 04:00:00 19.5 19 Nordeste 32 Nordeste 0 -- -- 64
2019-06-11 03:00:00 19.4 15 Nordeste 35 Nordeste 0 -- -- 69
2019-06-11 02:00:00 19.5 19 Nordeste 36 Nordeste 0 -- -- 69
2019-06-11 01:00:00 19.6 19 Nordeste 35 Nordeste 0 -- -- 70
2019-06-11 00:00:00 19.8 21 Nordeste 37 Nordeste 0 -- -- 71
2019-06-10 23:00:00 19.9 21 Nordeste 39 Nordeste 0 -- -- 71
2019-06-10 22:00:00 20 21 Nordeste 40 Nordeste 0 -- -- 69
2019-06-10 21:00:00 20.5 22 Nordeste 38 Nordeste 0 -- -- 68
2019-06-10 20:00:00 21.4 21 Nordeste 41 Norte 0 -- -- 65
2019-06-10 19:00:00 21.6 23 Nordeste 42 Nordeste 0 -- -- 64
2019-06-10 18:00:00 22.2 25 Nordeste 48 Nordeste 0 -- -- 59
2019-06-10 17:00:00 22.7 22 Nordeste 41 Nordeste 0 -- -- 52
2019-06-10 16:00:00 22.4 19 Nordeste 40 Nordeste 0 -- -- 59
2019-06-10 15:00:00 22.6 21 Nordeste 36 Nordeste 0 -- -- 55
2019-06-10 14:00:00 22.4 18 Nordeste 39 Este 0 -- -- 59
2019-06-10 13:00:00 22.4 23 Nordeste 40 Nordeste 0 -- -- 58
2019-06-10 12:00:00 21.3 21 Nordeste 39 Nordeste 0 -- -- 63
2019-06-10 11:00:00 21.5 22 Nordeste 42 Nordeste 0 -- -- 56
2019-06-10 10:00:00 20.7 24 Nordeste 39 Nordeste 0 -- -- 60
2019-06-10 09:00:00 20.4 17 Nordeste 51 Nordeste 0 -- -- 59
2019-06-10 08:00:00 19.7 19 Nordeste 35 Este 0 -- -- 66
2019-06-10 07:00:00 19.5 15 Nordeste 34 Nordeste 0 -- -- 66
2019-06-10 06:00:00 19.5 22 Nordeste 37 Nordeste 0 -- -- 67
2019-06-10 05:00:00 19.5 21 Nordeste 36 Nordeste 0 -- -- 66
2019-06-10 04:00:00 19.6 21 Nordeste 37 Nordeste 0 -- -- 64
2019-06-10 03:00:00 19.8 19 Nordeste 40 Nordeste 0 -- -- 68
2019-06-10 02:00:00 19.9 27 Nordeste 45 Nordeste 0 -- -- 66
2019-06-10 01:00:00 20.1 24 Nordeste 46 Nordeste 0 -- -- 64
2019-06-10 00:00:00 20.3 23 Nordeste 45 Nordeste 0 -- -- 67
2019-06-09 23:00:00 20.3 23 Nordeste 46 Nordeste 0 -- -- 64
2019-06-09 22:00:00 20.3 25 Nordeste 45 Nordeste 0 -- -- 64
2019-06-09 21:00:00 20.3 27 Nordeste 55 Nordeste 0 -- -- 60
2019-06-09 20:00:00 20.8 27 Nordeste 48 Nordeste 0 -- -- 60
2019-06-09 19:00:00 21.3 26 Nordeste 47 Nordeste 0 -- -- 57
2019-06-09 18:00:00 21.6 27 Nordeste 55 Nordeste 0 -- -- 58
2019-06-09 17:00:00 22.3 27 Nordeste 58 Nordeste 0 -- -- 52
2019-06-09 16:00:00 22.1 28 Nordeste 55 Nordeste 0 -- -- 54
2019-06-09 15:00:00 22.1 33 Nordeste 50 Norte 0 -- -- 49
2019-06-09 14:00:00 22.3 23 Nordeste 45 Norte 0 -- -- 49
2019-06-09 13:00:00 21.3 25 Nordeste 45 Nordeste 0 -- -- 54
2019-06-09 12:00:00 21.6 22 Nordeste 44 Nordeste 0 -- -- 49
2019-06-09 11:00:00 20.5 26 Nordeste 57 Nordeste 0 -- -- 56
2019-06-09 10:00:00 20 23 Nordeste 41 Nordeste 0 -- -- 60
2019-06-09 09:00:00 20.2 22 Nordeste 42 Nordeste 0 -- -- 56
2019-06-09 08:00:00 19.7 19 Nordeste 35 Norte 0 -- -- 56
2019-06-09 07:00:00 19.3 17 Nordeste 35 Nordeste 0 -- -- 58
2019-06-09 06:00:00 19.6 20 Nordeste 36 Nordeste 0 -- -- 58
2019-06-09 05:00:00 19.4 15 Nordeste 34 Este 0 -- -- 61
2019-06-09 04:00:00 19.3 16 Nordeste 32 Nordeste 0 -- -- 63
2019-06-09 03:00:00 19.1 16 Nordeste 38 Este 0 -- -- 62
2019-06-09 02:00:00 19.4 19 Nordeste 37 Nordeste 0 -- -- 63
2019-06-09 01:00:00 19.6 22 Nordeste 41 Nordeste 0 -- -- 63
2019-06-09 00:00:00 19.8 19 Nordeste 36 Nordeste 0 -- -- 63
2019-06-08 23:00:00 19.9 21 Nordeste 40 Nordeste 0 -- -- 61
2019-06-08 22:00:00 20.2 23 Nordeste 39 Nordeste 0 -- -- 62
2019-06-08 21:00:00 20.5 23 Nordeste 38 Nordeste 0 -- -- 61
2019-06-08 20:00:00 21 24 Nordeste 39 Nordeste 0 -- -- 63
2019-06-08 19:00:00 22.5 18 Nordeste 45 Norte 0 -- -- 56
2019-06-08 18:00:00 21.8 21 Norte 40 Norte 0 -- -- 64
2019-06-08 17:00:00 22.3 24 Norte 35 Norte 0 -- -- 57
2019-06-08 16:00:00 22.9 23 Norte 35 Norte 0 -- -- 52
2019-06-08 15:00:00 22.8 23 Norte 40 Norte 0 -- -- 57
2019-06-08 14:00:00 23 21 Nordeste 37 Nordeste 0 -- -- 60
2019-06-08 13:00:00 23.2 21 Nordeste 34 Norte 0 -- -- 56
2019-06-08 12:00:00 22.8 19 Nordeste 36 Nordeste 0 -- -- 59
2019-06-08 11:00:00 22.3 21 Nordeste 40 Nordeste 0 -- -- 60
2019-06-08 10:00:00 20.8 24 Nordeste 36 Nordeste 0 -- -- 69
2019-06-08 09:00:00 19.9 23 Nordeste 37 Nordeste 0 -- -- 78
2019-06-08 08:00:00 20.8 14 Nordeste 32 Este 0 -- -- 67
2019-06-08 07:00:00 20.9 15 Nordeste 34 Nordeste 0 -- -- 67
2019-06-08 06:00:00 20.9 14 Nordeste 31 Nordeste 0 -- -- 67
2019-06-08 05:00:00 21.1 18 Nordeste 37 Este 0 -- -- 64
2019-06-08 04:00:00 20.9 18 Nordeste 30 Nordeste 0 -- -- 72
2019-06-08 03:00:00 20.6 21 Nordeste 28 Nordeste 0 -- -- 74
2019-06-08 02:00:00 20.8 14 Nordeste 25 Este 0 -- -- 74
2019-06-08 01:00:00 21.3 12 Nordeste 24 Nordeste 0 -- -- 71
2019-06-08 00:00:00 21.2 15 Nordeste 36 Nordeste 0 -- -- 67
2019-06-07 23:00:00 20.8 16 Nordeste 29 Nordeste 0 -- -- 71
2019-06-07 22:00:00 20.9 19 Nordeste 35 Norte 0 -- -- 73
2019-06-07 21:00:00 21.3 19 Nordeste 32 Nordeste 0 -- -- 65
2019-06-07 20:00:00 22 21 Nordeste 36 Norte 0 -- -- 65
2019-06-07 19:00:00 22.5 22 Norte 41 Norte 0 -- -- 62
2019-06-07 18:00:00 23.8 19 Nordeste 39 Nordeste 0 -- -- 55
2019-06-07 17:00:00 23.4 23 Nordeste 38 Nordeste 0 -- -- 56
2019-06-07 16:00:00 23.6 22 Nordeste 41 Norte 0 -- -- 56
2019-06-07 15:00:00 22.8 29 Norte 42 Norte 0 -- -- 64
2019-06-07 14:00:00 23.6 21 Nordeste 41 Nordeste 0 -- -- 54
2019-06-07 13:00:00 23.3 19 Nordeste 36 Nordeste 0 -- -- 53
2019-06-07 12:00:00 22.2 23 Nordeste 37 Este 0 -- -- 55
2019-06-07 11:00:00 20.6 19 Nordeste 31 Nordeste 0 -- -- 61
2019-06-07 10:00:00 20.7 15 Nordeste 34 Este 0 -- -- 60
2019-06-07 09:00:00 19.7 15 Nordeste 30 Nordeste 0 -- -- 67
2019-06-07 08:00:00 19.2 15 Nordeste 26 Nordeste 0 -- -- 69
2019-06-07 07:00:00 19.1 11 Nordeste 23 Nordeste 0 -- -- 69
2019-06-07 06:00:00 19.4 16 Nordeste 30 Este 0 -- -- 69
2019-06-07 05:00:00 19.7 12 Este 27 Este 0 -- -- 61
2019-06-07 04:00:00 19.2 14 Nordeste 23 Este 0 -- -- 64
2019-06-07 03:00:00 18.9 10 Nordeste 33 Nordeste 0 -- -- 64
2019-06-07 02:00:00 19.4 16 Nordeste 32 Nordeste 0 -- -- 63
2019-06-07 01:00:00 19.4 16 Nordeste 28 Nordeste 0 -- -- 71
2019-06-07 00:00:00 19.6 17 Nordeste 32 Este 0 -- -- 64
2019-06-06 23:00:00 19.8 16 Nordeste 31 Nordeste 0 -- -- 62
2019-06-06 22:00:00 19.9 17 Nordeste 33 Nordeste 0 -- -- 61
2019-06-06 21:00:00 20.2 17 Nordeste 33 Norte 0 -- -- 60
2019-06-06 20:00:00 20.9 18 Nordeste 39 Norte 0 -- -- 57
2019-06-06 19:00:00 21.4 22 Norte 35 Nordeste 0 -- -- 53
2019-06-06 18:00:00 22 23 Norte 36 Norte 0 -- -- 47
2019-06-06 17:00:00 22.1 23 Norte 40 Norte 0 -- -- 53
2019-06-06 16:00:00 21.3 21 Norte 39 Nordeste 0 -- -- 59
2019-06-06 15:00:00 22.5 19 Nordeste 38 Nordeste 0 -- -- 54
2019-06-06 14:00:00 22.2 17 Nordeste 38 Norte 0 -- -- 55
2019-06-06 13:00:00 22 15 Nordeste 34 Nordeste 0 -- -- 53
2019-06-06 12:00:00 21.7 14 Nordeste 34 Nordeste 0 -- -- 50
2019-06-06 11:00:00 20.1 20 Nordeste 31 Nordeste 0 -- -- 61
2019-06-06 10:00:00 19.1 17 Nordeste 30 Nordeste 0 -- -- 71
2019-06-06 09:00:00 20.5 11 Nordeste 29 Nordeste 0 -- -- 55
2019-06-06 08:00:00 19.4 19 Nordeste 30 Nordeste 0 -- -- 62
2019-06-06 07:00:00 19.5 14 Nordeste 29 Nordeste 0 -- -- 65
2019-06-06 06:00:00 19.5 17 Nordeste 27 Nordeste 0 -- -- 66
2019-06-06 05:00:00 19.5 16 Nordeste 27 Este 0 -- -- 66
2019-06-06 04:00:00 19.7 18 Nordeste 32 Nordeste 0 -- -- 66
2019-06-06 03:00:00 19.8 17 Nordeste 33 Nordeste 0 -- -- 67
2019-06-06 02:00:00 19.9 18 Nordeste 38 Nordeste 0 -- -- 67
2019-06-06 01:00:00 20 25 Nordeste 39 Nordeste 0 -- -- 67
2019-06-06 00:00:00 20.4 21 Nordeste 35 Nordeste 0 -- -- 72
2019-06-05 23:00:00 20.6 17 Nordeste 33 Nordeste 0 -- -- 70
2019-06-05 22:00:00 20.6 21 Nordeste 37 Nordeste 0 -- -- 68
2019-06-05 21:00:00 21.1 21 Nordeste 37 Nordeste 0 -- -- 71
2019-06-05 20:00:00 21.9 18 Nordeste 38 Norte 0 -- -- 68
2019-06-05 19:00:00 22.3 21 Norte 37 Norte 0 -- -- 66
2019-06-05 18:00:00 22.7 23 Norte 39 Norte 0 -- -- 64
2019-06-05 17:00:00 23.1 24 Norte 45 Norte 0 -- -- 62
2019-06-05 16:00:00 22.6 23 Norte 38 Nordeste 0 -- -- 66
2019-06-05 15:00:00 23.1 22 Norte 38 Norte 0 -- -- 62
2019-06-05 14:00:00 23.8 20 Nordeste 38 Nordeste 0 -- -- 60
2019-06-05 13:00:00 23.3 25 Nordeste 45 Nordeste 0 -- -- 59
2019-06-05 12:00:00 22.4 27 Nordeste 43 Nordeste 0 -- -- 66
2019-06-05 11:00:00 21.9 19 Nordeste 40 Nordeste 0 -- -- 70
2019-06-05 10:00:00 22.6 22 Nordeste 37 Este 0 -- -- 63
2019-06-05 09:00:00 22 26 Nordeste 39 Este 0 -- -- 64
2019-06-05 08:00:00 20.8 18 Nordeste 38 Nordeste 0 -- -- 70
2019-06-05 07:00:00 21.2 17 Nordeste 36 Nordeste 0 -- -- 66
2019-06-05 06:00:00 20.9 14 Nordeste 34 Nordeste 0 -- -- 67
2019-06-05 05:00:00 20.4 15 Nordeste 29 Nordeste 0 -- -- 76
2019-06-05 04:00:00 21.1 18 Nordeste 35 Nordeste 0 -- -- 73
2019-06-05 03:00:00 21.2 17 Nordeste 32 Este 0 -- -- 67
2019-06-05 02:00:00 21 15 Nordeste 32 Nordeste 0 -- -- 68
2019-06-05 01:00:00 20.9 20 Nordeste 36 Nordeste 0 -- -- 72
2019-06-05 00:00:00 21 20 Nordeste 33 Nordeste 0 -- -- 69
2019-06-04 23:00:00 21 17 Nordeste 30 Nordeste 0 -- -- 69
2019-06-04 22:00:00 20.7 20 Nordeste 37 Nordeste 0 -- -- 69
2019-06-04 21:00:00 20.7 23 Nordeste 39 Norte 0 -- -- 70
2019-06-04 20:00:00 21.9 23 Norte 38 Norte 0 -- -- 67
2019-06-04 19:00:00 22 28 Norte 43 Norte 0 -- -- 68
2019-06-04 18:00:00 23.1 26 Norte 37 Norte 0 -- -- 66
2019-06-04 17:00:00 25.2 20 Nordeste 45 Norte 0 -- -- 48
2019-06-04 16:00:00 23.2 33 Norte 53 Norte 0 -- -- 66
2019-06-04 15:00:00 25.5 23 Norte 41 Nordeste 0 -- -- 56
2019-06-04 14:00:00 25.2 26 Norte 49 Norte 0 -- -- 49
2019-06-04 13:00:00 23.6 37 Norte 53 Norte 0 -- -- 62
2019-06-04 12:00:00 25.9 31 Norte 51 Norte 0 -- -- 37
2019-06-04 11:00:00 25.6 30 Norte 49 Nordeste 0 -- -- 35
2019-06-04 10:00:00 25.8 27 Norte 42 Nordeste 0 -- -- 33
2019-06-04 09:00:00 25.6 24 Nordeste 38 Nordeste 0 -- -- 28
2019-06-04 08:00:00 21.7 25 Norte 42 Norte 0 -- -- 54
2019-06-04 07:00:00 21.1 26 Norte 42 Nordeste 0 -- -- 61
2019-06-04 06:00:00 20.2 27 Nordeste 41 Norte 0 -- -- 77
2019-06-04 05:00:00 20.5 28 Nordeste 43 Nordeste 0 -- -- 72
2019-06-04 04:00:00 20.5 28 Nordeste 41 Nordeste 0 -- -- 74
2019-06-04 03:00:00 21.1 23 Norte 39 Nordeste 0 -- -- 67
2019-06-04 02:00:00 20.7 22 Norte 43 Norte 0 -- -- 76
2019-06-04 01:00:00 20.8 24 Norte 36 Nordeste 0 -- -- 76
2019-06-04 00:00:00 20.9 19 Norte 38 Nordeste 0 -- -- 76
2019-06-03 23:00:00 21 19 Norte 31 Norte 0 -- -- 76
2019-06-03 22:00:00 21 15 Norte 31 Norte 0 -- -- 78
2019-06-03 21:00:00 21.1 20 Norte 45 Norte 0 -- -- 80
2019-06-03 20:00:00 21.7 30 Norte 51 Norte 0 -- -- 78
2019-06-03 19:00:00 22 39 Norte 51 Norte 0 -- -- 77
2019-06-03 18:00:00 23.5 37 Norte 59 Norte 0 -- -- 70
2019-06-03 17:00:00 23.8 33 Norte 49 Norte 0 -- -- 70
2019-06-03 16:00:00 24.1 29 Norte 56 Norte 0 -- -- 69
2019-06-03 15:00:00 22.8 41 Norte 65 Norte 0 -- -- 75
2019-06-03 14:00:00 22.6 40 Norte 52 Norte 0 -- -- 76
2019-06-03 13:00:00 22.5 40 Norte 64 Norte 0 -- -- 76
2019-06-03 12:00:00 22.1 41 Norte 63 Norte 0 -- -- 77
2019-06-03 11:00:00 21.6 36 Norte 45 Norte 0 -- -- 79
2019-06-03 10:00:00 23.1 8 Nordeste 34 Norte 0 -- -- 71
2019-06-03 09:00:00 22.3 9 Sur 27 Nordeste 0 -- -- 71
2019-06-03 08:00:00 20.5 9 Este 35 Norte 0 -- -- 76
2019-06-03 07:00:00 20.1 17 Norte 36 Norte 0 -- -- 82
2019-06-03 06:00:00 20.2 25 Norte 43 Norte 0 -- -- 83
2019-06-03 05:00:00 21.2 14 Norte 31 Norte 0 -- -- 71
2019-06-03 04:00:00 21.3 8 Sudoeste 31 Norte 0 -- -- 67
2019-06-03 03:00:00 20.5 21 Norte 29 Norte 0 -- -- 83
2019-06-03 02:00:00 20.5 22 Norte 32 Norte 0 -- -- 84
2019-06-03 01:00:00 20.9 11 Norte 29 Norte 0 -- -- 81
2019-06-03 00:00:00 21.1 24 Norte 32 Noroeste 0 -- -- 81
2019-06-02 23:00:00 22 13 Norte 35 Norte 0 -- -- 70
2019-06-02 22:00:00 21 20 Norte 34 Norte 0 -- -- 78
2019-06-02 21:00:00 21.6 13 Norte 35 Norte 0 -- -- 75
2019-06-02 20:00:00 23.9 7 Oeste 18 Sudeste 0 -- -- 65
2019-06-02 19:00:00 24.6 7 Sur 20 Norte 0 -- -- 65
2019-06-02 18:00:00 24 15 Nordeste 37 Norte 0 -- -- 66
2019-06-02 17:00:00 22.5 29 Norte 47 Norte 0 -- -- 74
2019-06-02 16:00:00 22.3 32 Norte 40 Norte 0 -- -- 76
2019-06-02 15:00:00 22.1 30 Norte 42 Norte 0 -- -- 77
2019-06-02 14:00:00 22.6 29 Norte 39 Norte 0 -- -- 75
2019-06-02 13:00:00 22.5 23 Norte 32 Norte 0 -- -- 73
2019-06-02 12:00:00 23 6 Este 30 Nordeste 0 -- -- 70
2019-06-02 11:00:00 22.4 14 Nordeste 28 Norte 0 -- -- 71
2019-06-02 10:00:00 21.9 8 Norte 29 Norte 0 -- -- 73
2019-06-02 09:00:00 20.6 9 Nordeste 22 Norte 0 -- -- 81
2019-06-02 08:00:00 19.8 6 Nordeste 13 Este 0 -- -- 83
2019-06-02 07:00:00 19.2 6 Nordeste 13 Nordeste 0 -- -- 84
2019-06-02 06:00:00 19.4 3 Norte 9 Este 0 -- -- 83
2019-06-02 05:00:00 19.3 7 Este 12 Este 0 -- -- 82
2019-06-02 04:00:00 19.4 5 Sudeste 12 Sudeste 0 -- -- 81
2019-06-02 03:00:00 19.7 7 Sudeste 13 Sudeste 0 -- -- 80
2019-06-02 02:00:00 19.9 6 Sudeste 16 Sudeste 0 -- -- 79
2019-06-02 01:00:00 20.1 3 Norte 26 Nordeste 0 -- -- 78
2019-06-02 00:00:00 20.3 5 Nordeste 21 Nordeste 0 -- -- 77
2019-06-01 23:00:00 20.4 12 Nordeste 22 Norte 0 -- -- 76
2019-06-01 22:00:00 20.5 12 Norte 22 Nordeste 0 -- -- 74
2019-06-01 21:00:00 20.8 13 Norte 23 Norte 0 -- -- 75
2019-06-01 20:00:00 21.1 15 Norte 30 Norte 0 -- -- 73
2019-06-01 19:00:00 21 23 Norte 32 Norte 0 -- -- 79
2019-06-01 18:00:00 21.5 23 Norte 33 Norte 0 -- -- 76
2019-06-01 17:00:00 22 24 Norte 29 Norte 0 -- -- 75
2019-06-01 16:00:00 22.1 18 Norte 23 Norte 0 -- -- 75
2019-06-01 15:00:00 21.8 16 Norte 21 Norte 0 -- -- 75
2019-06-01 14:00:00 21.7 19 Norte 28 Norte 0 -- -- 75
2019-06-01 13:00:00 21.4 22 Norte 27 Noroeste 0 -- -- 75
2019-06-01 12:00:00 21.3 20 Norte 23 Norte 0 -- -- 75
2019-06-01 11:00:00 21 17 Norte 20 Norte 0 -- -- 75
2019-06-01 10:00:00 20.4 10 Nordeste 21 Norte 0 -- -- 76
2019-06-01 09:00:00 20.1 11 Nordeste 20 Nordeste 0 -- -- 77
2019-06-01 08:00:00 19.8 13 Nordeste 21 Nordeste 0 -- -- 76
2019-06-01 07:00:00 19.6 12 Norte 22 Norte 0 -- -- 77
2019-06-01 06:00:00 19.5 8 Nordeste 16 Norte 0 -- -- 76
2019-06-01 05:00:00 19.5 8 Nordeste 15 Norte 0 -- -- 77
2019-06-01 04:00:00 19.6 10 Norte 21 Nordeste 0 -- -- 77
2019-06-01 03:00:00 19.8 11 Nordeste 22 Nordeste 0 -- -- 76
2019-06-01 02:00:00 19.7 11 Nordeste 21 Norte 0 -- -- 76
2019-06-01 01:00:00 19.4 13 Nordeste 23 Norte 0 -- -- 77
2019-06-01 00:00:00 19.8 12 Nordeste 26 Norte 0 -- -- 76
2019-05-31 23:00:00 19.9 14 Nordeste 27 Nordeste 0 -- -- 74
2019-05-31 22:00:00 20.3 13 Nordeste 28 Nordeste 0 -- -- 73
2019-05-31 21:00:00 20.5 15 Norte 34 Norte 0 -- -- 72
2019-05-31 20:00:00 21.3 18 Norte 33 Norte 0 -- -- 70
2019-05-31 19:00:00 22 21 Norte 31 Norte 0 -- -- 69
2019-05-31 18:00:00 21.6 26 Norte 41 Norte 0 -- -- 72
2019-05-31 17:00:00 21.8 27 Norte 32 Norte 0 -- -- 71
2019-05-31 16:00:00 21.8 26 Norte 32 Norte 0 -- -- 71
2019-05-31 15:00:00 21.6 26 Norte 40 Norte 0 -- -- 69
2019-05-31 14:00:00 21.1 30 Norte 40 Norte 0 -- -- 72
2019-05-31 13:00:00 21.2 26 Norte 31 Norte 0 -- -- 71
2019-05-31 12:00:00 21.1 21 Norte 26 Norte 0 -- -- 73
2019-05-31 11:00:00 20.8 18 Norte 22 Norte 0 -- -- 72
2019-05-31 10:00:00 19.9 17 Norte 21 Norte 0 -- -- 76
2019-05-31 09:00:00 19.8 11 Norte 21 Norte 0 -- -- 73
2019-05-31 08:00:00 19.2 10 Nordeste 22 Nordeste 0 -- -- 73
2019-05-31 07:00:00 19.1 12 Nordeste 23 Norte 0 -- -- 73
2019-05-31 06:00:00 19.3 14 Nordeste 24 Nordeste 0 -- -- 73
2019-05-31 05:00:00 19.4 13 Nordeste 27 Norte 0 -- -- 72
2019-05-31 04:00:00 19.3 15 Norte 28 Norte 0 -- -- 72
2019-05-31 03:00:00 19.9 12 Nordeste 25 Nordeste 0 -- -- 72
2019-05-31 02:00:00 19.8 14 Nordeste 26 Nordeste 0 -- -- 71
2019-05-31 01:00:00 19.9 10 Nordeste 25 Nordeste 0 -- -- 70
2019-05-31 00:00:00 19.9 12 Nordeste 25 Nordeste 0 -- -- 70
2019-05-30 23:00:00 19.8 13 Norte 27 Nordeste 0 -- -- 71
2019-05-30 22:00:00 20 13 Nordeste 27 Norte 0 -- -- 71
2019-05-30 21:00:00 20.1 14 Nordeste 32 Norte 0 -- -- 70
2019-05-30 20:00:00 20.8 23 Norte 33 Norte 0 -- -- 68
2019-05-30 19:00:00 21.6 20 Norte 34 Norte 0 -- -- 66
2019-05-30 18:00:00 21.5 24 Norte 38 Norte 0 -- -- 67
2019-05-30 17:00:00 21.3 26 Norte 33 Norte 0 -- -- 69
2019-05-30 16:00:00 21.6 24 Norte 39 Norte 0 -- -- 67
2019-05-30 15:00:00 21.3 27 Norte 32 Norte 0 -- -- 68
2019-05-30 14:00:00 20.9 27 Norte 40 Norte 0 -- -- 68
2019-05-30 13:00:00 20.5 28 Norte 35 Norte 0 -- -- 69
2019-05-30 12:00:00 20.5 26 Norte 35 Norte 0 -- -- 69
2019-05-30 11:00:00 20.6 21 Norte 31 Norte 0 -- -- 67
2019-05-30 10:00:00 20.4 16 Norte 22 Nordeste 0 -- -- 66
2019-05-30 09:00:00 19.6 8 Nordeste 20 Norte 0 -- -- 68
2019-05-30 08:00:00 18.9 8 Nordeste 19 Nordeste 0 -- -- 70
2019-05-30 07:00:00 18.5 8 Este 20 Norte 0 -- -- 70
2019-05-30 06:00:00 18.9 7 Nordeste 22 Nordeste 0 -- -- 71
2019-05-30 05:00:00 18.8 15 Norte 23 Norte 0 -- -- 71
2019-05-30 04:00:00 19.1 12 Nordeste 27 Norte 0 -- -- 70
2019-05-30 03:00:00 19.2 11 Nordeste 30 Nordeste 0 -- -- 70
2019-05-30 02:00:00 19.2 16 Norte 28 Norte 0 -- -- 70
2019-05-30 01:00:00 19.2 13 Nordeste 33 Norte 0 -- -- 70
2019-05-30 00:00:00 19.5 15 Nordeste 29 Nordeste 0 -- -- 70
2019-05-29 23:00:00 19.6 15 Nordeste 32 Norte 0 -- -- 70
2019-05-29 22:00:00 19.4 19 Norte 39 Norte 0 -- -- 70
2019-05-29 21:00:00 19.8 15 Norte 34 Nordeste 0 -- -- 69
2019-05-29 20:00:00 20.4 23 Norte 37 Norte 0 -- -- 67
2019-05-29 19:00:00 20.8 28 Norte 41 Norte 0 -- -- 67
2019-05-29 18:00:00 21.6 26 Norte 39 Norte 0 -- -- 63
2019-05-29 17:00:00 21.3 27 Norte 39 Norte 0 -- -- 66
2019-05-29 16:00:00 21.5 27 Norte 40 Norte 0 -- -- 64
2019-05-29 15:00:00 20.9 29 Norte 37 Norte 0 -- -- 66
2019-05-29 14:00:00 21.1 25 Norte 39 Norte 0 -- -- 65
2019-05-29 13:00:00 20.4 28 Norte 38 Norte 0 -- -- 66
2019-05-29 12:00:00 20.6 20 Norte 38 Norte 0 -- -- 64
2019-05-29 11:00:00 20.2 21 Norte 33 Norte 0 -- -- 66
2019-05-29 10:00:00 19.5 15 Nordeste 29 Norte 0 -- -- 68
2019-05-29 09:00:00 19.1 13 Nordeste 27 Norte 0 -- -- 71
2019-05-29 08:00:00 19 13 Nordeste 33 Nordeste 0 -- -- 72
2019-05-29 07:00:00 18.8 17 Norte 28 Norte 0 -- -- 72
2019-05-29 06:00:00 18.9 17 Nordeste 31 Nordeste 0 -- -- 73
2019-05-29 05:00:00 19.1 18 Norte 29 Norte 0 -- -- 73
2019-05-29 04:00:00 19.2 14 Nordeste 30 Este 0 -- -- 69
2019-05-29 03:00:00 19.2 17 Norte 27 Nordeste 0 -- -- 70
2019-05-29 02:00:00 19.2 18 Norte 32 Norte 0 -- -- 71
2019-05-29 01:00:00 19.9 13 Nordeste 27 Este 0 -- -- 70
2019-05-29 00:00:00 19.9 13 Nordeste 30 Norte 0 -- -- 69
2019-05-28 23:00:00 20.3 16 Nordeste 30 Norte 0 -- -- 71
2019-05-28 22:00:00 20.1 20 Norte 35 Nordeste 0 -- -- 69
2019-05-28 21:00:00 20.3 19 Nordeste 41 Norte 0 -- -- 68
2019-05-28 20:00:00 20.8 18 Nordeste 40 Norte 0 -- -- 69
2019-05-28 19:00:00 21.5 26 Norte 44 Norte 0 -- -- 65
2019-05-28 18:00:00 22.1 26 Norte 46 Norte 0 -- -- 63
2019-05-28 17:00:00 22.6 26 Norte 48 Norte 0 -- -- 64
2019-05-28 16:00:00 22.6 24 Norte 46 Norte 0 -- -- 63
2019-05-28 15:00:00 22.6 27 Norte 42 Norte 0 -- -- 61
2019-05-28 14:00:00 22.2 24 Norte 45 Norte 0 -- -- 64
2019-05-28 13:00:00 21.7 27 Norte 44 Norte 0 -- -- 65
2019-05-28 12:00:00 21 30 Norte 40 Norte 0 -- -- 68
2019-05-28 11:00:00 21.1 25 Norte 37 Norte 0 -- -- 68
2019-05-28 10:00:00 20.6 20 Norte 33 Norte 0 -- -- 69
2019-05-28 09:00:00 20 18 Nordeste 30 Norte 0 -- -- 75
2019-05-28 08:00:00 19.7 17 Nordeste 30 Nordeste 0 -- -- 75
2019-05-28 07:00:00 19.8 20 Nordeste 37 Nordeste 0 -- -- 73
2019-05-28 06:00:00 19.8 21 Nordeste 37 Norte 0 -- -- 73
2019-05-28 05:00:00 19.7 19 Nordeste 31 Nordeste 0 -- -- 75
2019-05-28 04:00:00 19.6 17 Norte 36 Norte 0 -- -- 77
2019-05-28 03:00:00 19.6 20 Nordeste 36 Nordeste 0 -- -- 74
2019-05-28 02:00:00 19.6 18 Nordeste 33 Nordeste 0 -- -- 75
2019-05-28 01:00:00 19.6 19 Nordeste 36 Nordeste 0 -- -- 75
2019-05-28 00:00:00 19.7 20 Norte 37 Norte 0 -- -- 76
2019-05-27 23:00:00 20.1 23 Norte 36 Norte 0 -- -- 75
2019-05-27 22:00:00 20.3 22 Norte 38 Norte 0 -- -- 72
2019-05-27 21:00:00 20.5 24 Norte 39 Norte 0 -- -- 72
2019-05-27 20:00:00 21.1 26 Nordeste 48 Norte 0 -- -- 69
2019-05-27 19:00:00 22.1 29 Norte 50 Norte 0 -- -- 67
2019-05-27 18:00:00 22.2 30 Norte 50 Norte 0 -- -- 68
2019-05-27 17:00:00 22.7 30 Norte 54 Norte 0 -- -- 67
2019-05-27 16:00:00 22 35 Norte 48 Norte 0 -- -- 70
2019-05-27 15:00:00 22.3 33 Norte 48 Norte 0 -- -- 67
2019-05-27 14:00:00 21.8 33 Norte 46 Norte 0 -- -- 69
2019-05-27 13:00:00 22 29 Norte 45 Nordeste 0 -- -- 67
2019-05-27 12:00:00 21.8 26 Norte 45 Norte 0 -- -- 68
2019-05-27 11:00:00 21.2 27 Norte 37 Norte 0 -- -- 72
2019-05-27 10:00:00 20.9 20 Norte 34 Norte 0 -- -- 70
2019-05-27 09:00:00 20.5 14 Este 31 Nordeste 0 -- -- 71
2019-05-27 08:00:00 19.3 14 Nordeste 40 Nordeste 0 -- -- 76
2019-05-27 07:00:00 19.1 25 Nordeste 44 Nordeste 0 -- -- 76
2019-05-27 06:00:00 19.2 27 Nordeste 54 Nordeste 0 -- -- 75
2019-05-27 05:00:00 19.1 26 Nordeste 39 Nordeste 0 -- -- 75
2019-05-27 04:00:00 19.1 21 Nordeste 39 Nordeste 0 -- -- 75
2019-05-27 03:00:00 19.3 21 Norte 36 Norte 0 -- -- 73
2019-05-27 02:00:00 19.6 23 Norte 42 Nordeste 0 -- -- 74
2019-05-27 01:00:00 19.7 22 Nordeste 40 Norte 0 -- -- 76
2019-05-27 00:00:00 19.8 22 Nordeste 34 Nordeste 0 -- -- 75
2019-05-26 23:00:00 19.8 22 Norte 39 Nordeste 0 -- -- 77
2019-05-26 22:00:00 19.8 21 Norte 37 Nordeste 0 -- -- 77
2019-05-26 21:00:00 20 23 Norte 44 Norte 0 -- -- 76
2019-05-26 20:00:00 20.8 27 Norte 49 Norte 0 -- -- 72
2019-05-26 19:00:00 21.1 31 Norte 41 Norte 0 -- -- 70
2019-05-26 18:00:00 21.7 24 Norte 42 Norte 0 -- -- 66
2019-05-26 17:00:00 21.8 29 Norte 50 Norte 0 -- -- 66
2019-05-26 16:00:00 21.8 32 Norte 51 Norte 0 -- -- 65
2019-05-26 15:00:00 22.4 27 Norte 45 Norte 0 -- -- 63
2019-05-26 14:00:00 22.1 30 Norte 41 Norte 0 -- -- 63
2019-05-26 13:00:00 21.8 26 Norte 43 Norte 0 -- -- 63
2019-05-26 12:00:00 21.6 24 Norte 42 Nordeste 0 -- -- 65
2019-05-26 11:00:00 21.6 21 Nordeste 35 Norte 0 -- -- 64
2019-05-26 10:00:00 20.8 21 Norte 44 Norte 0 -- -- 64
2019-05-26 09:00:00 20.2 18 Nordeste 29 Nordeste 0 -- -- 68
2019-05-26 08:00:00 19.3 15 Nordeste 29 Nordeste 0 -- -- 71
2019-05-26 07:00:00 19.1 18 Nordeste 32 Nordeste 0 -- -- 67
2019-05-26 06:00:00 19.3 17 Nordeste 30 Nordeste 0 -- -- 70
2019-05-26 05:00:00 19.5 17 Nordeste 28 Nordeste 0 -- -- 65
2019-05-26 04:00:00 19.5 15 Nordeste 27 Nordeste 0 -- -- 64
2019-05-26 03:00:00 19.5 17 Nordeste 34 Nordeste 0 -- -- 64
2019-05-26 02:00:00 19.6 18 Nordeste 32 Este 0 -- -- 65
2019-05-26 01:00:00 19.6 21 Nordeste 34 Nordeste 0 -- -- 63
2019-05-26 00:00:00 19.7 22 Nordeste 39 Nordeste 0 -- -- 63